Milford, Texas
Current Conditions -  °F | °C
As of 11:30 PM on Wednesday 22 Oct 2014 (Local Time) from KINJ Reporting Station
Clear Clear  
Wind Chill: 69°   Ceiling: Unl
Heat Index: 69°   Visibility: 10mi
Dew Point: 55°   Wind: 9mph
Humidity: 59%   Direction: 100°E
Pressure: 30.1"   Gusts: NA
Location:  32.12°N, 96.95°W
Report Text: KINJ 230430Z AUTO 10008KT 10SM CLR 21/13 A3010 RMK AO2 T02070125
Loading
Personal Weather Stations






























Interactive Weather Map New forecast layout! Learn more

10-Day Weather Forecast

Advertisements
Track Severe Weather on mobile